Time;durP1;ratioP1;P1;durP2;ratioP2;P2;SDS_P1;SDS_P2;PMS_P1;PMS_P2;Temp;Humidity;BMP_temperature;BMP_pressure;BME280_temperature;BME280_humidity;BME280_pressure;Samples;Min_cycle;Max_cycle;Signal;HPM_P1;HPM_P2
2022/12/26 00:01:16;;;;;;;;;;;;;;;4.80;70.01;100745.50;4995615;28;19936;-87
2022/12/26 00:03:41;;;;;;;;;;;;;;;5.02;70.07;100754.78;4995049;28;20371;-86
2022/12/26 00:06:13;;;;;;;;;;;;;;;5.10;69.26;100749.72;4993468;28;20275;-87
2022/12/26 00:08:39;;;;;;;;;;;;;;;4.94;70.32;100758.91;4995118;28;19968;-84
2022/12/26 00:11:04;;;;;;;;;;;;;;;4.78;69.60;100757.66;4994935;28;20391;-85
2022/12/26 00:13:30;;;;;;;;;;;;;;;4.50;70.24;100770.00;4995116;28;19920;-87
2022/12/26 00:15:55;;;;;;;;;;;;;;;4.37;71.27;100770.50;5010108;28;20399;-84
2022/12/26 00:18:20;;;;;;;;;;;;;;;4.15;72.66;100777.72;4994532;28;19917;-83
2022/12/26 00:20:46;;;;;;;;;;;;;;;4.05;73.25;100774.00;4994610;28;19921;-87
2022/12/26 00:23:11;;;;;;;;;;;;;;;4.46;72.71;100787.34;5009396;28;19924;-84
2022/12/26 00:25:36;;;;;;;;;;;;;;;4.32;73.09;100785.16;5009635;28;19914;-85
2022/12/26 00:28:02;;;;;;;;;;;;;;;4.43;73.75;100787.25;4994042;28;20032;-89
2022/12/26 00:30:27;;;;;;;;;;;;;;;4.57;73.67;100789.31;4994477;28;19913;-88
2022/12/26 00:32:52;;;;;;;;;;;;;;;4.56;74.22;100796.28;4994623;28;19956;-87
2022/12/26 00:35:17;;;;;;;;;;;;;;;4.48;75.83;100797.81;4994155;28;19917;-87
2022/12/26 00:37:43;;;;;;;;;;;;;;;4.45;75.09;100803.84;4994829;28;19918;-88
2022/12/26 00:40:08;;;;;;;;;;;;;;;4.68;74.11;100807.91;4994169;28;20027;-88
2022/12/26 00:42:34;;;;;;;;;;;;;;;4.78;73.29;100805.59;4994132;28;19937;-87
2022/12/26 00:44:59;;;;;;;;;;;;;;;4.66;72.92;100803.56;4994388;28;19913;-88
2022/12/26 00:47:24;;;;;;;;;;;;;;;4.50;73.14;100805.72;4994450;28;20372;-88
2022/12/26 00:49:50;;;;;;;;;;;;;;;4.70;72.71;100804.50;5009091;28;19914;-88
2022/12/26 00:52:15;;;;;;;;;;;;;;;4.73;72.66;100806.31;4993799;28;20273;-88
2022/12/26 00:54:40;;;;;;;;;;;;;;;4.76;72.96;100804.66;4993870;28;19914;-88
2022/12/26 00:57:05;;;;;;;;;;;;;;;4.74;72.67;100801.13;4993837;28;19971;-87
2022/12/26 00:59:31;;;;;;;;;;;;;;;4.84;72.54;100810.97;5008621;28;19939;-88
2022/12/26 01:01:56;;;;;;;;;;;;;;;4.93;71.93;100797.25;4993770;28;19914;-86
2022/12/26 01:04:21;;;;;;;;;;;;;;;4.93;71.07;100807.72;4993718;28;19913;-88
2022/12/26 01:06:47;;;;;;;;;;;;;;;4.76;71.16;100801.19;4993780;28;20348;-87
2022/12/26 01:09:13;;;;;;;;;;;;;;;4.61;71.07;100799.03;4994112;28;19913;-87
2022/12/26 01:11:39;;;;;;;;;;;;;;;4.58;71.73;100801.56;4993757;28;19924;-88
2022/12/26 01:14:15;;;;;;;;;;;;;;;4.56;71.31;100798.91;4994039;28;19914;-88
2022/12/26 01:16:41;;;;;;;;;;;;;;;4.66;70.62;100786.97;4993571;28;20443;-88
2022/12/26 01:19:06;;;;;;;;;;;;;;;4.54;70.38;100787.53;4993670;28;19914;-88
2022/12/26 01:21:31;;;;;;;;;;;;;;;4.45;70.02;100792.50;5008332;28;19914;-88
2022/12/26 01:27:00;;;;;;;;;;;;;;;4.24;69.82;100805.84;4993493;28;19964;-89
2022/12/26 01:29:25;;;;;;;;;;;;;;;4.02;70.61;100806.97;4993145;28;19918;-88
2022/12/26 01:31:50;;;;;;;;;;;;;;;4.01;70.47;100805.19;4994221;28;20007;-88
2022/12/26 01:34:15;;;;;;;;;;;;;;;3.96;70.33;100814.63;4993213;28;19917;-89
2022/12/26 01:39:44;;;;;;;;;;;;;;;3.66;71.98;100808.50;4993668;28;19932;-88
2022/12/26 01:42:13;;;;;;;;;;;;;;;3.80;71.70;100813.25;4993281;28;19914;-88
2022/12/26 01:44:57;;;;;;;;;;;;;;;3.85;71.40;100807.34;4993278;28;20008;-89
2022/12/26 01:47:24;;;;;;;;;;;;;;;3.85;71.28;100801.25;4993675;28;19921;-88
2022/12/26 01:49:51;;;;;;;;;;;;;;;4.03;70.75;100808.72;4993113;28;20372;-87
2022/12/26 01:52:26;;;;;;;;;;;;;;;4.01;70.77;100802.56;4992930;28;19917;-87
2022/12/26 01:54:53;;;;;;;;;;;;;;;4.12;70.45;100798.53;4993439;28;19921;-88
2022/12/26 01:57:23;;;;;;;;;;;;;;;3.98;71.24;100802.47;4992988;28;20144;-87
2022/12/26 02:05:36;;;;;;;;;;;;;;;3.79;72.90;100812.38;4993218;28;19940;-87
2022/12/26 02:08:03;;;;;;;;;;;;;;;3.78;73.03;100809.72;4995488;28;19921;-88
2022/12/26 02:10:32;;;;;;;;;;;;;;;3.86;73.57;100814.34;4996936;28;19917;-88
2022/12/26 02:12:57;;;;;;;;;;;;;;;4.04;73.17;100813.97;4996007;28;19914;-88
2022/12/26 02:15:23;;;;;;;;;;;;;;;3.64;74.98;100815.38;5012205;28;19992;-89
2022/12/26 02:17:48;;;;;;;;;;;;;;;3.84;74.81;100813.38;4996993;28;19933;-88
2022/12/26 02:20:22;;;;;;;;;;;;;;;3.72;74.58;100813.00;4995668;28;20407;-88
2022/12/26 02:22:53;;;;;;;;;;;;;;;3.71;74.14;100816.50;4996809;28;19918;-89
2022/12/26 02:25:36;;;;;;;;;;;;;;;3.48;75.41;100820.97;4997051;28;20431;-89
2022/12/26 02:28:05;;;;;;;;;;;;;;;3.93;74.16;100831.94;4997348;28;20008;-87
2022/12/26 02:30:45;;;;;;;;;;;;;;;3.76;74.07;100838.38;4996991;28;19914;-89
2022/12/26 02:33:13;;;;;;;;;;;;;;;3.67;74.94;100836.38;4996015;28;20275;-89
2022/12/26 02:35:50;;;;;;;;;;;;;;;3.49;76.16;100836.69;4996376;28;19967;-89
2022/12/26 02:38:16;;;;;;;;;;;;;;;3.70;75.88;100827.75;4997039;28;19960;-88
2022/12/26 02:43:55;;;;;;;;;;;;;;;3.88;73.70;100823.09;4996555;28;20320;-89
2022/12/26 02:49:16;;;;;;;;;;;;;;;3.69;73.92;100821.66;4995996;28;20015;-89
2022/12/26 03:15:03;;;;;;;;;;;;;;;3.45;72.96;100826.09;4995754;28;19921;-88
2022/12/26 03:17:38;;;;;;;;;;;;;;;3.26;72.72;100820.28;4994828;28;19949;-88
2022/12/26 03:20:03;;;;;;;;;;;;;;;3.34;72.75;100816.19;4995954;28;20000;-88
2022/12/26 03:22:51;;;;;;;;;;;;;;;3.34;72.13;100810.09;4995969;28;19949;-88
2022/12/26 03:28:03;;;;;;;;;;;;;;;3.51;72.48;100806.31;4995260;28;20012;-88
2022/12/26 03:30:48;;;;;;;;;;;;;;;3.53;71.99;100807.22;4995157;28;19949;-88
2022/12/26 03:36:26;;;;;;;;;;;;;;;3.35;72.55;100804.94;4995563;28;19917;-88
2022/12/26 03:38:54;;;;;;;;;;;;;;;3.46;72.58;100813.13;4995605;28;19914;-88
2022/12/26 04:19:23;;;;;;;;;;;;;;;4.79;71.81;100836.13;4974817;28;19920;-87
2022/12/26 04:44:17;;;;;;;;;;;;;;;2.41;76.04;100858.16;4994147;28;19921;-85
2022/12/26 04:46:44;;;;;;;;;;;;;;;2.24;76.68;100858.44;4993786;28;19910;-85
2022/12/26 04:51:56;;;;;;;;;;;;;;;2.24;76.22;100855.84;4994001;28;20472;-86
2022/12/26 04:54:21;;;;;;;;;;;;;;;2.42;75.85;100860.81;5009095;28;20330;-85
2022/12/26 04:56:46;;;;;;;;;;;;;;;2.66;75.32;100866.03;4994004;28;19913;-83
2022/12/26 04:59:12;;;;;;;;;;;;;;;2.78;74.50;100870.81;4994323;28;19913;-83
2022/12/26 05:09:54;;;;;;;;;;;;;;;2.57;74.50;100865.72;4993954;28;19980;-85
2022/12/26 05:12:19;;;;;;;;;;;;;;;2.76;74.62;100879.41;5008462;28;19956;-85
2022/12/26 05:14:45;;;;;;;;;;;;;;;2.86;74.38;100889.34;4993593;28;19972;-85
2022/12/26 05:34:09;;;;;;;;;;;;;;;2.85;74.25;100906.66;4993529;28;20395;-87
2022/12/26 05:36:45;;;;;;;;;;;;;;;2.75;74.08;100894.16;4993614;28;19940;-87
2022/12/26 05:39:11;;;;;;;;;;;;;;;2.82;74.33;100910.91;4993469;28;19921;-84
2022/12/26 05:41:37;;;;;;;;;;;;;;;2.95;73.46;100907.91;4992179;28;19913;-84
2022/12/26 05:44:03;;;;;;;;;;;;;;;3.17;72.55;100906.03;4992986;28;20383;-86
2022/12/26 05:46:28;;;;;;;;;;;;;;;2.90;73.32;100906.81;4993646;28;20386;-86
2022/12/26 05:51:56;;;;;;;;;;;;;;;2.82;72.84;100903.06;4993268;28;19964;-85
2022/12/26 05:54:21;;;;;;;;;;;;;;;2.82;73.32;100914.38;4992988;28;20364;-86
2022/12/26 05:56:47;;;;;;;;;;;;;;;2.49;73.48;100911.44;4993347;28;19914;-86
2022/12/26 05:59:12;;;;;;;;;;;;;;;2.55;74.27;100909.06;4993756;28;19914;-86
2022/12/26 06:04:40;;;;;;;;;;;;;;;2.66;74.83;100912.06;4993118;28;20351;-85
2022/12/26 06:07:05;;;;;;;;;;;;;;;2.42;75.32;100907.69;4992880;28;19913;-84
2022/12/26 06:09:30;;;;;;;;;;;;;;;2.60;74.83;100910.13;4992940;28;19914;-84
2022/12/26 06:11:56;;;;;;;;;;;;;;;2.47;75.58;100908.78;4993224;28;19914;-84
2022/12/26 06:17:24;;;;;;;;;;;;;;;2.78;75.13;100909.91;4993317;28;19932;-84
2022/12/26 06:19:49;;;;;;;;;;;;;;;2.71;75.12;100917.44;4992904;28;20357;-84
2022/12/26 06:22:14;;;;;;;;;;;;;;;2.76;75.39;100913.28;4993016;28;19914;-84
2022/12/26 06:27:42;;;;;;;;;;;;;;;2.68;75.22;100918.22;4993147;28;19964;-84
2022/12/26 06:30:08;;;;;;;;;;;;;;;2.84;75.37;100920.56;4992796;28;19913;-84
2022/12/26 06:32:33;;;;;;;;;;;;;;;3.06;74.63;100918.72;4993045;28;20388;-84
2022/12/26 06:34:59;;;;;;;;;;;;;;;3.19;74.10;100927.84;4992937;28;19976;-83
2022/12/26 06:37:24;;;;;;;;;;;;;;;3.31;74.35;100930.88;5007403;28;20347;-83
2022/12/26 06:39:49;;;;;;;;;;;;;;;3.45;73.79;100935.69;4992676;28;19921;-85
2022/12/26 06:42:15;;;;;;;;;;;;;;;3.26;74.51;100932.44;4992704;28;20360;-83
2022/12/26 06:44:40;;;;;;;;;;;;;;;3.42;74.63;100935.56;4992929;28;20466;-84
2022/12/26 06:47:05;;;;;;;;;;;;;;;3.54;73.97;100939.47;4992515;28;19914;-84
2022/12/26 06:49:31;;;;;;;;;;;;;;;3.56;73.25;100940.41;4992613;28;19913;-84
2022/12/26 06:51:56;;;;;;;;;;;;;;;3.64;72.88;100934.56;4992404;28;19969;-83
2022/12/26 06:54:21;;;;;;;;;;;;;;;3.57;73.62;100939.56;4995224;28;20391;-83
2022/12/26 06:56:47;;;;;;;;;;;;;;;3.81;73.38;100943.81;4996246;28;19955;-83
2022/12/26 07:02:15;;;;;;;;;;;;;;;3.81;74.71;100938.59;4996240;28;19937;-84
2022/12/26 07:04:40;;;;;;;;;;;;;;;4.10;73.39;100942.13;5010919;28;19945;-84
2022/12/26 07:07:05;;;;;;;;;;;;;;;4.26;73.26;100940.00;4996131;28;19914;-84
2022/12/26 07:09:31;;;;;;;;;;;;;;;4.57;72.33;100948.75;4995955;28;20372;-85
2022/12/26 07:11:56;;;;;;;;;;;;;;;4.57;72.37;100941.81;4996266;28;19920;-83
2022/12/26 07:14:21;;;;;;;;;;;;;;;4.37;72.85;100954.28;4995907;28;20478;-83
2022/12/26 07:19:50;;;;;;;;;;;;;;;4.67;72.56;100958.66;4996257;28;19916;-83
2022/12/26 07:22:15;;;;;;;;;;;;;;;4.78;73.12;100961.56;4995941;28;19952;-83
2022/12/26 07:24:40;;;;;;;;;;;;;;;5.11;72.35;100963.34;5010851;28;20328;-87
2022/12/26 07:27:05;;;;;;;;;;;;;;;5.15;71.67;100953.00;4995463;28;20004;-85
2022/12/26 07:29:31;;;;;;;;;;;;;;;5.24;72.04;100954.13;4995545;28;20020;-83
2022/12/26 07:31:57;;;;;;;;;;;;;;;5.41;70.83;100959.78;4995776;28;19953;-84
2022/12/26 07:34:23;;;;;;;;;;;;;;;5.17;71.45;100959.19;4995630;28;19910;-84
2022/12/26 07:36:48;;;;;;;;;;;;;;;5.34;71.89;100967.47;4995626;28;19941;-84
2022/12/26 07:39:13;;;;;;;;;;;;;;;5.41;71.69;100976.38;5010709;28;19920;-85
2022/12/26 07:42:00;;;;;;;;;;;;;;;5.50;71.49;100975.72;4995531;28;19910;-86
2022/12/26 07:44:28;;;;;;;;;;;;;;;6.08;69.96;100965.84;4995279;28;19979;-86
2022/12/26 07:46:54;;;;;;;;;;;;;;;6.41;69.10;100967.47;4995257;28;19922;-83
2022/12/26 07:49:21;;;;;;;;;;;;;;;6.53;68.57;100969.47;4994428;28;19914;-85
2022/12/26 07:54:49;;;;;;;;;;;;;;;6.93;67.84;100957.19;4995573;28;19929;-85
2022/12/26 07:57:14;;;;;;;;;;;;;;;6.94;66.79;100972.09;4994894;28;19914;-85
2022/12/26 07:59:39;;;;;;;;;;;;;;;6.73;68.21;100978.66;4995911;28;20271;-85
2022/12/26 08:02:05;;;;;;;;;;;;;;;6.80;68.01;100984.94;4995697;28;19920;-83
2022/12/26 08:07:33;;;;;;;;;;;;;;;6.98;67.90;100990.56;4994967;28;19921;-86
2022/12/26 08:09:58;;;;;;;;;;;;;;;7.24;66.48;100982.28;4994549;28;19918;-86
2022/12/26 08:12:25;;;;;;;;;;;;;;;7.49;66.71;100990.63;4995453;28;19925;-86
2022/12/26 08:14:50;;;;;;;;;;;;;;;7.12;68.15;100984.69;4994530;28;19937;-86
2022/12/26 08:20:18;;;;;;;;;;;;;;;7.56;66.11;100978.53;4994789;28;19943;-86
2022/12/26 08:22:44;;;;;;;;;;;;;;;7.77;65.07;100981.53;4993104;28;19918;-87
2022/12/26 08:25:09;;;;;;;;;;;;;;;7.77;65.26;100975.34;4991006;28;19913;-87
2022/12/26 08:27:34;;;;;;;;;;;;;;;7.57;65.76;100975.91;4990733;28;19924;-87
2022/12/26 08:30:00;;;;;;;;;;;;;;;7.62;66.05;100968.13;4991641;28;19914;-87
2022/12/26 08:32:25;;;;;;;;;;;;;;;7.61;65.71;100969.84;4977923;28;19925;-87
2022/12/26 08:34:51;;;;;;;;;;;;;;;8.02;64.87;100971.41;4975397;28;19921;-87
2022/12/26 08:37:16;;;;;;;;;;;;;;;7.83;64.22;100968.50;4974974;28;19914;-87
2022/12/26 08:39:41;;;;;;;;;;;;;;;7.88;64.72;100968.56;4992145;28;19960;-87
2022/12/26 08:42:06;;;;;;;;;;;;;;;8.27;63.06;100963.91;4994157;28;20287;-87
2022/12/26 08:44:32;;;;;;;;;;;;;;;8.20;63.00;100958.56;4994201;28;19913;-87
2022/12/26 08:46:57;;;;;;;;;;;;;;;8.41;62.52;100952.69;4993920;28;19913;-87
2022/12/26 08:49:22;;;;;;;;;;;;;;;8.34;61.82;100950.88;4993003;28;19913;-86
2022/12/26 08:54:51;;;;;;;;;;;;;;;8.49;62.06;100957.22;4994233;28;19936;-87
2022/12/26 08:57:16;;;;;;;;;;;;;;;8.63;61.68;100950.38;4993001;28;19918;-86
2022/12/26 08:59:41;;;;;;;;;;;;;;;8.61;61.25;100949.50;4992287;28;19960;-86
2022/12/26 09:02:09;;;;;;;;;;;;;;;8.71;60.30;100945.22;4979769;28;19917;-86
2022/12/26 09:07:36;;;;;;;;;;;;;;;9.13;59.94;100938.72;4999432;28;20335;-89
2022/12/26 09:10:03;;;;;;;;;;;;;;;8.86;60.32;100937.53;4994988;28;19914;-89
2022/12/26 09:12:28;;;;;;;;;;;;;;;8.90;61.51;100933.19;4994091;28;19914;-89
2022/12/26 09:14:54;;;;;;;;;;;;;;;9.19;61.80;100927.34;4993759;28;19920;-89
2022/12/26 09:20:22;;;;;;;;;;;;;;;9.19;61.24;100923.00;4992359;28;20007;-91
2022/12/26 09:22:50;;;;;;;;;;;;;;;9.32;60.37;100924.84;4991750;28;20284;-90
2022/12/26 09:25:23;;;;;;;;;;;;;;;9.42;60.48;100914.41;4993835;28;19918;-90
2022/12/26 09:30:53;;;;;;;;;;;;;;;9.25;59.73;100904.63;4992796;28;19921;-91
2022/12/26 09:39:24;;;;;;;;;;;;;;;9.72;56.79;100894.47;4993754;28;19916;-89
2022/12/26 09:48:05;;;;;;;;;;;;;;;9.81;56.67;100884.00;4974104;28;19921;-87
2022/12/26 09:50:33;;;;;;;;;;;;;;;9.84;57.09;100871.72;4972102;28;20367;-89
2022/12/26 09:53:01;;;;;;;;;;;;;;;9.54;56.81;100876.78;4973829;28;19949;-89
2022/12/26 09:55:41;;;;;;;;;;;;;;;9.67;56.74;100876.88;4982294;28;19971;-90
2022/12/26 09:58:15;;;;;;;;;;;;;;;9.68;57.01;100877.75;4993187;28;20388;-89
2022/12/26 10:00:44;;;;;;;;;;;;;;;9.89;56.80;100871.75;4993501;28;19913;-90
2022/12/26 10:03:10;;;;;;;;;;;;;;;9.90;57.97;100870.00;4992327;28;20356;-92
2022/12/26 10:06:02;;;;;;;;;;;;;;;9.84;57.89;100866.47;4991734;28;19936;-91
2022/12/26 10:08:45;;;;;;;;;;;;;;;10.03;56.93;100867.44;5004373;28;20380;-90
2022/12/26 10:11:33;;;;;;;;;;;;;;;9.77;57.60;100871.69;4991781;28;20372;-87
2022/12/26 10:17:04;;;;;;;;;;;;;;;10.06;57.82;100860.44;4981274;28;19921;-88
2022/12/26 10:19:29;;;;;;;;;;;;;;;10.33;58.23;100850.06;4971941;28;19910;-88
2022/12/26 10:22:05;;;;;;;;;;;;;;;10.44;57.20;100860.66;4972800;28;19936;-86
2022/12/26 10:24:34;;;;;;;;;;;;;;;10.52;57.27;100847.50;4997364;28;20312;-92
2022/12/26 10:27:05;;;;;;;;;;;;;;;10.41;56.96;100851.84;5001525;28;19949;-94
2022/12/26 10:29:37;;;;;;;;;;;;;;;10.26;57.73;100850.00;4991173;28;19918;-91
2022/12/26 10:32:10;;;;;;;;;;;;;;;10.48;56.10;100851.88;4996942;28;19914;-93
2022/12/26 10:34:40;;;;;;;;;;;;;;;10.37;57.27;100848.31;4995009;28;19949;-93
2022/12/26 10:37:09;;;;;;;;;;;;;;;10.73;56.14;100837.00;4997052;28;19913;-93
2022/12/26 10:39:34;;;;;;;;;;;;;;;10.71;56.16;100835.25;4993371;28;20372;-90
2022/12/26 10:42:02;;;;;;;;;;;;;;;10.50;57.49;100836.03;4994878;28;19913;-88
2022/12/26 10:47:38;;;;;;;;;;;;;;;11.05;55.35;100817.69;4995372;28;19959;-92
2022/12/26 10:50:04;;;;;;;;;;;;;;;10.82;55.40;100816.78;4992467;28;20104;-91
2022/12/26 10:52:31;;;;;;;;;;;;;;;10.86;54.66;100814.16;4992049;28;20012;-89
2022/12/26 11:01:46;;;;;;;;;;;;;;;11.30;54.13;100791.28;4977852;28;20025;-85
2022/12/26 11:04:21;;;;;;;;;;;;;;;11.14;54.55;100793.06;4917105;29;19926;-87
2022/12/26 11:06:51;;;;;;;;;;;;;;;11.08;54.25;100795.72;4917175;29;19979;-87
2022/12/26 11:09:35;;;;;;;;;;;;;;;11.23;54.13;100785.16;4952326;28;20349;-87
2022/12/26 11:12:01;;;;;;;;;;;;;;;11.41;53.75;100784.22;4976537;28;19921;-89
2022/12/26 11:14:27;;;;;;;;;;;;;;;11.37;53.54;100784.22;4976328;28;19914;-87
2022/12/26 11:16:52;;;;;;;;;;;;;;;11.40;53.89;100782.50;4976861;28;19918;-89
2022/12/26 11:19:44;;;;;;;;;;;;;;;11.27;53.43;100778.97;4976346;28;19914;-87
2022/12/26 11:25:33;;;;;;;;;;;;;;;11.48;53.00;100779.84;4962175;28;19969;-86
2022/12/26 11:28:17;;;;;;;;;;;;;;;11.67;52.45;100774.53;4976244;28;19918;-87
2022/12/26 11:33:46;;;;;;;;;;;;;;;11.75;51.85;100764.81;4976397;28;19917;-89
2022/12/26 11:36:14;;;;;;;;;;;;;;;11.65;52.25;100762.19;4976611;28;20272;-88
2022/12/26 11:38:48;;;;;;;;;;;;;;;11.81;52.88;100751.56;4975931;28;19921;-88
2022/12/26 11:41:31;;;;;;;;;;;;;;;11.69;52.97;100759.53;4974920;28;19915;-88
2022/12/26 11:44:09;;;;;;;;;;;;;;;11.99;52.46;100758.59;4976154;28;19914;-87
2022/12/26 11:46:41;;;;;;;;;;;;;;;11.91;52.04;100755.94;4975905;28;19949;-87
2022/12/26 11:49:15;;;;;;;;;;;;;;;11.94;51.81;100755.97;4990877;28;19914;-87
2022/12/26 11:51:41;;;;;;;;;;;;;;;11.99;52.30;100756.81;4976324;28;19914;-87
2022/12/26 11:54:16;;;;;;;;;;;;;;;12.03;51.69;100759.44;4976231;28;19922;-85
2022/12/26 11:56:41;;;;;;;;;;;;;;;11.82;51.76;100759.50;4975917;28;19922;-87
2022/12/26 11:59:20;;;;;;;;;;;;;;;11.82;51.81;100753.34;4990537;28;19914;-87
2022/12/26 12:01:46;;;;;;;;;;;;;;;11.76;52.86;100750.72;4976223;28;19914;-86
2022/12/26 12:07:32;;;;;;;;;;;;;;;11.95;52.61;100744.47;4975733;28;19925;-88
2022/12/26 12:10:17;;;;;;;;;;;;;;;12.17;52.15;100750.59;4977070;28;19921;-88
2022/12/26 12:15:53;;;;;;;;;;;;;;;12.01;51.88;100746.22;4975913;28;20053;-92
2022/12/26 12:18:28;;;;;;;;;;;;;;;12.24;51.17;100746.13;4975350;28;19914;-87
2022/12/26 12:21:00;;;;;;;;;;;;;;;12.28;50.93;100741.69;4975410;28;19930;-89
2022/12/26 12:23:28;;;;;;;;;;;;;;;12.28;51.08;100739.94;4975571;28;19969;-87
2022/12/26 12:25:59;;;;;;;;;;;;;;;12.41;50.62;100730.16;4975168;28;19922;-87
2022/12/26 12:31:30;;;;;;;;;;;;;;;12.26;51.03;100733.75;4975279;28;19968;-86
2022/12/26 12:34:07;;;;;;;;;;;;;;;12.35;50.45;100739.00;4975077;28;20321;-87
2022/12/26 12:36:37;;;;;;;;;;;;;;;12.44;50.09;100731.91;4974770;28;19915;-89
2022/12/26 12:42:14;;;;;;;;;;;;;;;12.43;50.63;100735.44;4975366;28;19937;-88
2022/12/26 12:44:45;;;;;;;;;;;;;;;12.49;50.59;100740.69;4974814;28;20495;-89
2022/12/26 12:47:18;;;;;;;;;;;;;;;12.52;50.00;100728.31;4974654;28;19914;-89
2022/12/26 12:52:47;;;;;;;;;;;;;;;12.40;50.88;100725.75;4974699;28;19961;-88
2022/12/26 12:55:33;;;;;;;;;;;;;;;12.42;50.98;100733.69;4974811;28;19913;-87
2022/12/26 12:58:14;;;;;;;;;;;;;;;12.50;50.49;100742.47;4974658;28;19949;-89
2022/12/26 13:00:43;;;;;;;;;;;;;;;12.52;50.08;100732.75;4974515;28;19914;-90
2022/12/26 13:03:17;;;;;;;;;;;;;;;12.55;50.59;100735.38;4989307;28;19914;-88
2022/12/26 13:05:52;;;;;;;;;;;;;;;12.51;50.35;100737.16;4970259;28;19976;-93
2022/12/26 13:08:22;;;;;;;;;;;;;;;12.59;50.01;100729.19;4974515;28;19920;-91
2022/12/26 13:10:59;;;;;;;;;;;;;;;12.54;50.14;100728.31;4989505;28;19918;-92
2022/12/26 13:13:31;;;;;;;;;;;;;;;12.69;49.54;100727.34;4975002;28;20357;-88
2022/12/26 13:16:01;;;;;;;;;;;;;;;12.73;49.39;100731.72;4974551;28;19968;-90
2022/12/26 13:18:30;;;;;;;;;;;;;;;12.69;50.16;100728.19;4973495;28;19953;-92
2022/12/26 13:21:02;;;;;;;;;;;;;;;12.72;50.00;100730.81;4975371;28;19949;-88
2022/12/26 13:26:34;;;;;;;;;;;;;;;12.58;50.80;100715.94;4962803;28;19960;-87
2022/12/26 13:29:05;;;;;;;;;;;;;;;12.56;50.82;100715.97;4972895;28;21290;-86
2022/12/26 13:31:34;;;;;;;;;;;;;;;12.77;50.03;100714.03;4973940;28;20393;-86
2022/12/26 13:37:02;;;;;;;;;;;;;;;12.60;51.63;100717.69;4974211;28;19920;-85
2022/12/26 13:45:34;;;;;;;;;;;;;;;12.55;50.92;100711.53;4974100;28;19921;-86
2022/12/26 13:51:03;;;;;;;;;;;;;;;12.53;51.51;100716.84;4973870;28;19932;-85
2022/12/26 13:53:32;;;;;;;;;;;;;;;12.54;51.39;100721.25;4973469;28;19918;-85
2022/12/26 13:55:59;;;;;;;;;;;;;;;12.77;50.81;100717.56;4973901;28;19914;-85
2022/12/26 14:01:42;;;;;;;;;;;;;;;12.61;51.97;100719.44;4973762;28;19917;-84
2022/12/26 14:04:26;;;;;;;;;;;;;;;12.50;52.46;100721.28;4973045;28;19914;-87
2022/12/26 14:10:10;;;;;;;;;;;;;;;12.42;52.44;100721.34;4973979;28;19921;-87
2022/12/26 14:12:54;;;;;;;;;;;;;;;12.39;52.43;100721.38;4973589;28;19949;-88
2022/12/26 14:15:19;;;;;;;;;;;;;;;12.39;52.26;100721.38;4973346;28;20311;-89
2022/12/26 14:17:59;;;;;;;;;;;;;;;12.45;51.95;100723.97;4973321;28;20014;-89
2022/12/26 14:20:35;;;;;;;;;;;;;;;12.38;52.19;100719.59;4973470;28;19938;-87
2022/12/26 14:23:11;;;;;;;;;;;;;;;12.29;52.27;100722.28;4973919;28;19914;-88
2022/12/26 14:28:54;;;;;;;;;;;;;;;12.21;53.40;100724.97;4960567;28;19925;-90
2022/12/26 14:31:38;;;;;;;;;;;;;;;12.06;54.27;100728.56;4988494;28;20391;-90
2022/12/26 14:37:08;;;;;;;;;;;;;;;11.65;55.57;100725.19;4973510;28;20400;-88
2022/12/26 14:39:34;;;;;;;;;;;;;;;11.55;56.21;100726.06;4971960;28;20372;-88
2022/12/26 14:47:52;;;;;;;;;;;;;;;11.35;56.66;100739.31;4973375;28;19973;-87
2022/12/26 14:50:32;;;;;;;;;;;;;;;11.18;57.33;100738.47;4973142;28;19914;-86
2022/12/26 14:53:16;;;;;;;;;;;;;;;11.10;57.65;100738.47;4973361;28;19918;-89
2022/12/26 14:55:52;;;;;;;;;;;;;;;11.20;57.71;100755.19;4973848;28;19937;-89
2022/12/26 15:01:21;;;;;;;;;;;;;;;10.88;58.35;100759.59;4973360;28;19918;-87
2022/12/26 15:03:46;;;;;;;;;;;;;;;10.88;58.51;100764.00;4972985;28;19914;-87
2022/12/26 15:06:17;;;;;;;;;;;;;;;10.73;59.30;100759.59;4972258;28;19914;-86
2022/12/26 15:09:01;;;;;;;;;;;;;;;10.62;59.33;100758.69;4972751;28;20005;-87
2022/12/26 15:11:35;;;;;;;;;;;;;;;10.47;59.97;100757.81;4973226;28;19965;-86
2022/12/26 15:17:09;;;;;;;;;;;;;;;10.49;59.86;100760.44;4976584;28;20020;-87
2022/12/26 15:19:40;;;;;;;;;;;;;;;10.51;59.63;100756.91;4976288;28;20384;-85
2022/12/26 15:22:24;;;;;;;;;;;;;;;10.42;59.62;100758.66;4976904;28;19914;-88
2022/12/26 15:25:16;;;;;;;;;;;;;;;10.39;60.04;100767.44;4976584;28;20360;-87
2022/12/26 15:31:02;;;;;;;;;;;;;;;9.89;61.56;100766.34;4962380;28;20020;-86
2022/12/26 15:33:48;;;;;;;;;;;;;;;9.79;61.13;100764.50;4975701;28;20368;-88
2022/12/26 15:39:22;;;;;;;;;;;;;;;9.45;62.65;100766.94;4917079;29;19917;-87
2022/12/26 15:45:14;;;;;;;;;;;;;;;9.31;62.28;100765.13;4976815;28;19917;-88
2022/12/26 15:47:45;;;;;;;;;;;;;;;9.09;62.62;100768.44;4976151;28;19961;-87
2022/12/26 15:50:20;;;;;;;;;;;;;;;9.01;63.49;100768.38;4976381;28;20387;-87
2022/12/26 15:52:55;;;;;;;;;;;;;;;8.88;63.45;100767.41;4977108;28;19964;-89
2022/12/26 15:55:23;;;;;;;;;;;;;;;8.74;63.87;100769.00;4977095;28;19941;-88
2022/12/26 16:00:52;;;;;;;;;;;;;;;8.54;63.92;100774.06;4975949;28;19917;-86
2022/12/26 16:03:24;;;;;;;;;;;;;;;8.48;64.63;100774.00;4975774;28;19914;-87
2022/12/26 16:05:55;;;;;;;;;;;;;;;8.38;64.37;100767.72;4976036;28;19918;-88
2022/12/26 16:11:40;;;;;;;;;;;;;;;8.25;64.36;100775.47;4975649;28;20012;-86
2022/12/26 16:14:09;;;;;;;;;;;;;;;8.07;64.74;100770.88;4975292;28;19925;-87
2022/12/26 16:16:36;;;;;;;;;;;;;;;8.06;64.81;100769.13;4975220;28;19954;-87
2022/12/26 16:19:21;;;;;;;;;;;;;;;7.96;65.95;100769.88;4975538;28;19972;-87
2022/12/26 16:27:44;;;;;;;;;;;;;;;7.49;66.29;100760.47;4975765;28;20403;-87
2022/12/26 16:30:14;;;;;;;;;;;;;;;7.53;66.01;100762.28;4975035;28;19988;-87
2022/12/26 16:32:41;;;;;;;;;;;;;;;7.53;65.91;100764.03;4975576;28;19914;-85
2022/12/26 16:38:14;;;;;;;;;;;;;;;7.14;68.34;100754.69;4975577;28;19964;-88
2022/12/26 16:40:42;;;;;;;;;;;;;;;6.89;69.35;100756.00;4975385;28;19925;-90
2022/12/26 16:43:16;;;;;;;;;;;;;;;6.97;70.03;100759.66;4975683;28;19914;-89
2022/12/26 16:48:46;;;;;;;;;;;;;;;6.63;70.18;100761.69;4975141;28;19960;-93
2022/12/26 16:51:32;;;;;;;;;;;;;;;6.02;72.01;100769.25;4989616;28;19914;-89
2022/12/26 16:54:13;;;;;;;;;;;;;;;5.88;73.32;100755.81;4975017;28;19964;-91
2022/12/26 16:56:38;;;;;;;;;;;;;;;6.33;71.77;100757.63;4974749;28;19914;-88
2022/12/26 16:59:06;;;;;;;;;;;;;;;6.57;70.95;100753.72;4974668;28;20289;-84
2022/12/26 17:04:34;;;;;;;;;;;;;;;6.35;70.94;100765.53;4974676;28;19916;-88
2022/12/26 17:07:01;;;;;;;;;;;;;;;6.45;70.94;100772.72;4988788;28;19914;-87
2022/12/26 17:09:29;;;;;;;;;;;;;;;6.52;70.44;100774.63;4974503;28;20017;-89
2022/12/26 17:11:57;;;;;;;;;;;;;;;6.56;70.24;100775.53;4974306;28;19914;-88
2022/12/26 17:14:30;;;;;;;;;;;;;;;6.59;70.25;100765.09;4974275;28;19914;-89
2022/12/26 17:17:02;;;;;;;;;;;;;;;6.62;70.07;100770.41;4974658;28;19914;-90
2022/12/26 17:19:30;;;;;;;;;;;;;;;6.66;69.74;100767.00;4974214;28;19958;-89
2022/12/26 17:22:14;;;;;;;;;;;;;;;6.60;69.24;100773.00;4974578;28;20386;-89
2022/12/26 17:27:42;;;;;;;;;;;;;;;6.59;69.61;100765.09;4974223;28;19969;-87
2022/12/26 17:30:26;;;;;;;;;;;;;;;6.52;69.82;100768.47;4988859;28;20017;-87
2022/12/26 17:36:02;;;;;;;;;;;;;;;6.45;69.31;100765.72;4974199;28;19917;-88
2022/12/26 17:38:27;;;;;;;;;;;;;;;6.48;69.55;100764.91;4974119;28;20056;-90
2022/12/26 17:40:54;;;;;;;;;;;;;;;6.48;69.52;100764.03;4988898;28;19965;-91
2022/12/26 17:43:29;;;;;;;;;;;;;;;6.48;69.12;100772.78;4973812;28;19937;-91
2022/12/26 17:45:54;;;;;;;;;;;;;;;6.35;69.04;100765.53;4973948;28;19922;-90
2022/12/26 17:48:19;;;;;;;;;;;;;;;6.26;68.90;100761.88;4973232;28;20288;-92
2022/12/26 17:50:46;;;;;;;;;;;;;;;6.26;69.24;100761.00;4972093;28;19921;-93
2022/12/26 17:53:15;;;;;;;;;;;;;;;6.22;68.72;100770.53;4973910;28;20003;-93